createdAt,value
2022-12-08T00:01:01.636Z,-1.05
2022-12-08T00:03:28.029Z,-1.14
2022-12-08T00:05:54.456Z,-1.04
2022-12-08T00:08:20.885Z,-1.15
2022-12-08T00:10:49.392Z,-1.41
2022-12-08T00:13:16.114Z,-1.43
2022-12-08T00:15:42.440Z,-1.72
2022-12-08T00:18:08.713Z,-1.74
2022-12-08T00:20:34.992Z,-1.52
2022-12-08T00:23:01.398Z,-2.34
2022-12-08T00:25:27.702Z,-1.84
2022-12-08T00:27:54.060Z,-1.66
2022-12-08T00:30:20.318Z,-1.50
2022-12-08T00:32:46.623Z,-1.32
2022-12-08T00:35:12.891Z,-1.40
2022-12-08T00:37:39.140Z,-1.30
2022-12-08T00:40:05.796Z,-1.19
2022-12-08T00:42:32.236Z,-1.14
2022-12-08T00:44:58.504Z,-1.39
2022-12-08T00:47:25.198Z,-1.25
2022-12-08T00:49:51.556Z,-1.35
2022-12-08T00:52:17.880Z,-1.53
2022-12-08T00:54:44.235Z,-1.24
2022-12-08T00:57:10.512Z,-1.18
2022-12-08T00:59:36.750Z,-1.09
2022-12-08T01:02:03.080Z,-0.97
2022-12-08T01:04:29.348Z,-1.67
2022-12-08T01:06:55.601Z,-1.49
2022-12-08T01:09:21.929Z,-1.26
2022-12-08T01:11:48.267Z,-1.15
2022-12-08T01:14:14.535Z,-1.02
2022-12-08T01:16:40.913Z,-1.07
2022-12-08T01:19:07.213Z,-1.11
2022-12-08T01:21:34.306Z,-1.28
2022-12-08T01:24:00.587Z,-1.15
2022-12-08T01:26:26.863Z,-1.06
2022-12-08T01:28:53.129Z,-1.00
2022-12-08T01:31:19.474Z,-1.06
2022-12-08T01:33:45.820Z,-1.09
2022-12-08T01:36:12.132Z,-1.15
2022-12-08T01:38:38.394Z,-1.13
2022-12-08T01:41:04.804Z,-1.04
2022-12-08T01:43:31.125Z,-1.21
2022-12-08T01:45:57.421Z,-1.20
2022-12-08T01:48:23.824Z,-1.17
2022-12-08T01:50:50.277Z,-1.17
2022-12-08T01:53:16.561Z,-1.09
2022-12-08T01:55:42.836Z,-1.63
2022-12-08T01:58:09.134Z,-1.54
2022-12-08T02:00:35.402Z,-1.28
2022-12-08T02:03:01.826Z,-1.24
2022-12-08T02:05:28.236Z,-1.22
2022-12-08T02:07:54.558Z,-1.22
2022-12-08T02:10:20.929Z,-1.17
2022-12-08T02:12:47.217Z,-1.06
2022-12-08T02:15:13.456Z,-1.02
2022-12-08T02:17:39.720Z,-1.08
2022-12-08T02:20:06.250Z,-1.09
2022-12-08T02:22:32.807Z,-1.08
2022-12-08T02:24:59.055Z,-1.06
2022-12-08T02:27:25.318Z,-1.05
2022-12-08T02:29:51.624Z,-1.51
2022-12-08T02:32:17.937Z,-1.27
2022-12-08T02:34:44.196Z,-1.24
2022-12-08T02:37:10.452Z,-1.21
2022-12-08T02:39:36.795Z,-1.23
2022-12-08T02:42:03.052Z,-1.14
2022-12-08T02:44:29.383Z,-1.26
2022-12-08T02:46:55.716Z,-1.13
2022-12-08T02:49:22.055Z,-1.12
2022-12-08T02:51:48.363Z,-1.21
2022-12-08T02:54:14.633Z,-1.30
2022-12-08T02:56:40.895Z,-1.20
2022-12-08T02:59:07.167Z,-1.17
2022-12-08T03:01:33.508Z,-1.28
2022-12-08T03:03:59.876Z,-1.43
2022-12-08T03:06:26.142Z,-1.23
2022-12-08T03:08:52.460Z,-1.24
2022-12-08T03:11:20.488Z,-1.32
2022-12-08T03:13:46.840Z,-1.18
2022-12-08T03:16:13.241Z,-1.88
2022-12-08T03:18:39.613Z,-1.46
2022-12-08T03:21:05.918Z,-1.24
2022-12-08T03:23:32.172Z,-1.17
2022-12-08T03:25:58.499Z,-1.10
2022-12-08T03:28:24.766Z,-1.14
2022-12-08T03:30:51.081Z,-1.12
2022-12-08T03:33:17.432Z,-1.08
2022-12-08T03:35:43.705Z,-1.08
2022-12-08T03:38:09.956Z,-1.09
2022-12-08T03:40:36.226Z,-1.02
2022-12-08T03:43:02.492Z,-1.03
2022-12-08T03:45:28.746Z,-1.13
2022-12-08T03:47:55.032Z,-1.41
2022-12-08T03:50:21.317Z,-1.19
2022-12-08T03:52:47.560Z,-1.05
2022-12-08T03:55:13.869Z,-1.03
2022-12-08T03:57:40.133Z,-0.98
2022-12-08T04:00:06.806Z,-1.05
2022-12-08T04:02:33.358Z,-1.17
2022-12-08T04:04:59.651Z,-1.59
2022-12-08T04:07:25.896Z,-1.30
2022-12-08T04:09:52.163Z,-1.16
2022-12-08T04:12:21.144Z,-1.03
2022-12-08T04:15:07.374Z,-1.24
2022-12-08T04:17:53.627Z,-1.10
2022-12-08T04:20:19.883Z,-1.17
2022-12-08T04:22:46.211Z,-1.29
2022-12-08T04:25:12.756Z,-1.25
2022-12-08T04:27:39.066Z,-1.14
2022-12-08T04:30:05.656Z,-1.18
2022-12-08T04:32:32.174Z,-1.39
2022-12-08T04:34:58.446Z,-1.21
2022-12-08T04:37:24.761Z,-1.20
2022-12-08T04:39:51.040Z,-1.26
2022-12-08T04:42:17.356Z,-1.16
2022-12-08T04:44:43.626Z,-1.10
2022-12-08T04:47:09.932Z,-1.35
2022-12-08T04:49:36.273Z,-1.29
2022-12-08T04:52:02.608Z,-1.25
2022-12-08T04:54:29.005Z,-1.29
2022-12-08T04:56:55.323Z,-1.31
2022-12-08T04:59:21.587Z,-1.33
2022-12-08T05:01:47.934Z,-1.82
2022-12-08T05:04:14.308Z,-1.73
2022-12-08T05:06:40.632Z,-1.57
2022-12-08T05:09:06.971Z,-1.53
2022-12-08T05:11:33.325Z,-1.32
2022-12-08T05:13:59.596Z,-1.18
2022-12-08T05:16:25.973Z,-1.15
2022-12-08T05:18:52.289Z,-1.17
2022-12-08T05:21:18.609Z,-1.33
2022-12-08T05:23:44.866Z,-1.25
2022-12-08T05:26:11.151Z,-1.19
2022-12-08T05:28:42.274Z,-1.07
2022-12-08T05:31:09.230Z,-1.12
2022-12-08T05:33:35.558Z,-1.06
2022-12-08T05:36:01.832Z,-1.15
2022-12-08T05:38:28.160Z,-1.20
2022-12-08T05:40:54.435Z,-1.13
2022-12-08T05:43:20.695Z,-1.11
2022-12-08T05:45:47.067Z,-1.00
2022-12-08T05:48:13.490Z,-1.01
2022-12-08T05:50:39.836Z,-0.87
2022-12-08T05:53:06.172Z,-1.03
2022-12-08T05:55:32.472Z,-1.19
2022-12-08T05:58:03.073Z,-1.11
2022-12-08T06:00:32.512Z,-1.10
2022-12-08T06:02:58.911Z,-1.10
2022-12-08T06:05:25.314Z,-1.07
2022-12-08T06:07:51.604Z,-0.96
2022-12-08T06:10:17.912Z,-0.85
2022-12-08T06:12:44.251Z,-0.93
2022-12-08T06:15:10.524Z,-0.93
2022-12-08T06:17:36.788Z,-1.02
2022-12-08T06:20:03.351Z,-1.01
2022-12-08T06:22:29.990Z,-0.95
2022-12-08T06:24:56.319Z,-0.94
2022-12-08T06:27:22.595Z,-1.42
2022-12-08T06:29:48.920Z,-1.55
2022-12-08T06:32:15.247Z,-1.30
2022-12-08T06:34:41.609Z,-1.12
2022-12-08T06:37:07.932Z,-1.10
2022-12-08T06:39:34.258Z,-1.46
2022-12-08T06:42:00.582Z,-1.37
2022-12-08T06:44:26.847Z,-1.25
2022-12-08T06:46:53.111Z,-1.25
2022-12-08T06:49:19.364Z,-1.68
2022-12-08T06:51:45.617Z,-1.71
2022-12-08T06:54:11.945Z,-1.88
2022-12-08T06:56:38.252Z,-1.75
2022-12-08T06:59:04.504Z,-1.39
2022-12-08T07:01:30.971Z,-1.32
2022-12-08T07:03:57.269Z,-1.18
2022-12-08T07:06:23.532Z,-1.23
2022-12-08T07:08:49.799Z,-1.64
2022-12-08T07:11:21.215Z,-1.53
2022-12-08T07:13:48.475Z,-1.42
2022-12-08T07:16:14.922Z,-1.36
2022-12-08T07:18:41.318Z,-1.30
2022-12-08T07:21:07.580Z,-1.26
2022-12-08T07:23:33.931Z,-1.21
2022-12-08T07:26:00.190Z,-1.19
2022-12-08T07:28:26.440Z,-1.21
2022-12-08T07:30:52.847Z,-1.10
2022-12-08T07:33:19.141Z,-1.09
2022-12-08T07:35:49.267Z,-0.99
2022-12-08T07:38:15.903Z,-0.92
2022-12-08T07:40:42.156Z,-0.87
2022-12-08T07:43:08.464Z,-0.92
2022-12-08T07:45:34.814Z,-0.84
2022-12-08T07:48:01.067Z,-0.76
2022-12-08T07:50:27.381Z,-0.82
2022-12-08T07:52:53.727Z,-0.78
2022-12-08T07:55:20.103Z,-0.88
2022-12-08T07:57:46.371Z,-1.00
2022-12-08T08:00:12.706Z,-0.89
2022-12-08T08:02:39.161Z,-0.70
2022-12-08T08:05:05.609Z,-0.59
2022-12-08T08:07:32.006Z,-0.46
2022-12-08T08:09:58.267Z,-0.53
2022-12-08T08:12:32.508Z,-0.48
2022-12-08T08:14:59.374Z,-0.46
2022-12-08T08:17:25.840Z,-0.38
2022-12-08T08:19:52.178Z,-0.32
2022-12-08T08:22:18.517Z,-0.41
2022-12-08T08:24:45.332Z,-0.30
2022-12-08T08:27:11.741Z,-0.47
2022-12-08T08:29:38.042Z,-0.37
2022-12-08T08:32:04.309Z,-0.10
2022-12-08T08:34:30.634Z,-0.09
2022-12-08T08:36:56.926Z,-0.28
2022-12-08T08:39:23.298Z,-0.43
2022-12-08T08:41:49.537Z,-0.17
2022-12-08T08:44:15.812Z,0.00
2022-12-08T08:46:42.139Z,-0.11
2022-12-08T08:49:08.424Z,-0.01
2022-12-08T08:51:34.866Z,0.12
2022-12-08T08:54:01.129Z,0.24
2022-12-08T08:56:27.366Z,0.27
2022-12-08T08:58:53.705Z,0.37
2022-12-08T09:01:20.023Z,0.28
2022-12-08T09:03:46.328Z,0.14
2022-12-08T09:06:12.803Z,0.46
2022-12-08T09:08:39.208Z,0.57
2022-12-08T09:11:05.456Z,0.38
2022-12-08T09:13:31.794Z,0.54
2022-12-08T09:15:58.163Z,0.78
2022-12-08T09:18:24.471Z,0.84
2022-12-08T09:20:50.842Z,0.95
2022-12-08T09:23:17.162Z,1.05
2022-12-08T09:25:43.397Z,0.85
2022-12-08T09:28:09.691Z,1.13
2022-12-08T09:30:36.012Z,1.27
2022-12-08T09:33:02.325Z,1.39
2022-12-08T09:35:28.673Z,1.40
2022-12-08T09:37:55.000Z,1.44
2022-12-08T09:40:21.255Z,1.05
2022-12-08T09:42:47.683Z,0.68
2022-12-08T09:45:13.972Z,0.77
2022-12-08T09:47:40.220Z,0.50
2022-12-08T09:50:06.982Z,0.37
2022-12-08T09:52:33.740Z,0.60
2022-12-08T09:55:00.018Z,1.12
2022-12-08T09:57:26.344Z,1.38
2022-12-08T09:59:52.702Z,1.48
2022-12-08T10:02:19.105Z,1.54
2022-12-08T10:04:45.485Z,1.36
2022-12-08T10:07:11.797Z,1.68
2022-12-08T10:09:38.116Z,1.80
2022-12-08T10:12:04.396Z,1.99
2022-12-08T10:14:30.658Z,2.08
2022-12-08T10:16:56.994Z,2.15
2022-12-08T10:19:23.329Z,2.11
2022-12-08T10:21:49.588Z,2.07
2022-12-08T10:24:15.872Z,2.19
2022-12-08T10:26:42.154Z,2.20
2022-12-08T10:29:08.411Z,2.23
2022-12-08T10:31:34.817Z,2.27
2022-12-08T10:34:01.159Z,2.36
2022-12-08T10:36:27.472Z,2.20
2022-12-08T10:38:53.800Z,2.17
2022-12-08T10:41:20.079Z,2.14
2022-12-08T10:43:46.465Z,2.00
2022-12-08T10:46:12.829Z,2.09
2022-12-08T10:48:39.183Z,2.28
2022-12-08T10:51:06.255Z,2.25
2022-12-08T10:53:32.649Z,2.21
2022-12-08T10:55:58.952Z,2.20
2022-12-08T10:58:25.388Z,2.23
2022-12-08T11:00:51.784Z,2.29
2022-12-08T11:03:18.195Z,2.33
2022-12-08T11:05:44.464Z,2.31
2022-12-08T11:08:10.864Z,2.22
2022-12-08T11:10:37.212Z,1.90
2022-12-08T11:13:03.448Z,2.08
2022-12-08T11:15:29.833Z,1.71
2022-12-08T11:17:57.729Z,1.82
2022-12-08T11:20:24.126Z,1.65
2022-12-08T11:22:50.446Z,1.92
2022-12-08T11:25:16.783Z,2.09
2022-12-08T11:27:43.044Z,1.73
2022-12-08T11:30:14.054Z,2.11
2022-12-08T11:32:40.855Z,2.19
2022-12-08T11:35:07.109Z,2.18
2022-12-08T11:37:35.122Z,2.02
2022-12-08T11:40:01.771Z,2.22
2022-12-08T11:42:28.280Z,2.30
2022-12-08T11:44:54.612Z,2.38
2022-12-08T11:47:20.904Z,2.33
2022-12-08T11:52:18.329Z,2.56
2022-12-08T11:54:44.641Z,2.50
2022-12-08T11:57:10.992Z,2.47
2022-12-08T11:59:37.258Z,2.56
2022-12-08T12:02:03.672Z,2.54
2022-12-08T12:04:30.071Z,2.40
2022-12-08T12:06:56.341Z,2.47
2022-12-08T12:09:22.857Z,2.54
2022-12-08T12:11:49.159Z,2.50
2022-12-08T12:14:15.412Z,2.49
2022-12-08T12:16:41.803Z,2.64
2022-12-08T12:19:08.221Z,2.79
2022-12-08T12:21:34.477Z,2.79
2022-12-08T12:24:00.812Z,2.76
2022-12-08T12:26:27.132Z,2.84
2022-12-08T12:28:53.442Z,2.83
2022-12-08T12:31:19.856Z,2.92
2022-12-08T12:33:46.291Z,2.89
2022-12-08T12:36:12.952Z,2.95
2022-12-08T12:38:39.206Z,2.89
2022-12-08T12:41:05.471Z,3.06
2022-12-08T12:43:31.730Z,3.20
2022-12-08T12:45:58.108Z,3.05
2022-12-08T12:48:24.534Z,3.12
2022-12-08T12:50:50.792Z,3.14
2022-12-08T12:53:17.126Z,2.85
2022-12-08T12:55:43.420Z,3.22
2022-12-08T12:58:09.654Z,2.76
2022-12-08T13:00:35.906Z,3.13
2022-12-08T13:03:02.217Z,3.19
2022-12-08T13:05:28.583Z,2.87
2022-12-08T13:07:55.094Z,2.75
2022-12-08T13:10:21.515Z,2.96
2022-12-08T13:12:47.773Z,3.09
2022-12-08T13:15:14.098Z,3.27
2022-12-08T13:17:40.412Z,3.17
2022-12-08T13:20:06.927Z,3.34
2022-12-08T13:22:33.490Z,3.38
2022-12-08T13:24:59.759Z,3.41
2022-12-08T13:27:26.004Z,3.50
2022-12-08T13:29:52.273Z,3.55
2022-12-08T13:32:18.767Z,3.68
2022-12-08T13:34:45.107Z,3.71
2022-12-08T13:37:11.413Z,3.76
2022-12-08T13:39:37.694Z,3.83
2022-12-08T13:42:03.961Z,4.02
2022-12-08T13:47:33.408Z,4.32
2022-12-08T13:56:51.400Z,3.57
2022-12-08T13:58:19.570Z,3.85
2022-12-08T14:00:45.842Z,3.93
2022-12-08T14:03:12.221Z,4.02
2022-12-08T14:06:10.477Z,4.15
2022-12-08T14:08:57.091Z,4.27
2022-12-08T14:11:11.089Z,4.32
2022-12-08T14:13:37.402Z,4.33
2022-12-08T14:16:03.676Z,4.29
2022-12-08T14:18:29.975Z,4.32
2022-12-08T14:21:19.805Z,4.26
2022-12-08T14:23:42.596Z,4.20
2022-12-08T14:26:09.054Z,4.20
2022-12-08T14:28:37.806Z,3.89
2022-12-08T14:31:07.831Z,3.86
2022-12-08T14:33:34.193Z,3.80
2022-12-08T14:36:00.485Z,2.91
2022-12-08T14:38:26.800Z,3.06
2022-12-08T14:40:53.196Z,3.22
2022-12-08T14:43:19.508Z,3.38
2022-12-08T14:45:45.761Z,3.30
2022-12-08T14:48:12.084Z,3.07
2022-12-08T14:50:38.420Z,3.11
2022-12-08T14:53:04.693Z,3.25
2022-12-08T14:55:30.963Z,3.25
2022-12-08T14:57:57.325Z,3.25
2022-12-08T15:00:23.611Z,3.29
2022-12-08T15:02:49.863Z,3.29
2022-12-08T15:05:16.226Z,3.24
2022-12-08T15:07:42.575Z,3.31
2022-12-08T15:10:09.053Z,3.25
2022-12-08T15:12:35.441Z,3.37
2022-12-08T15:15:01.921Z,2.91
2022-12-08T15:17:28.274Z,2.85
2022-12-08T15:19:54.604Z,2.79
2022-12-08T15:22:20.892Z,2.72
2022-12-08T15:24:47.154Z,2.58
2022-12-08T15:27:13.488Z,2.67
2022-12-08T15:29:39.791Z,2.77
2022-12-08T15:32:06.112Z,2.68
2022-12-08T15:34:32.379Z,2.66
2022-12-08T15:36:58.705Z,2.68
2022-12-08T15:39:25.014Z,2.67
2022-12-08T15:41:51.267Z,2.40
2022-12-08T15:44:17.580Z,2.61
2022-12-08T15:46:43.864Z,2.60
2022-12-08T15:49:10.205Z,2.64
2022-12-08T15:51:36.591Z,2.48
2022-12-08T15:54:02.888Z,2.74
2022-12-08T15:56:29.189Z,2.68
2022-12-08T15:58:56.860Z,2.71
2022-12-08T16:01:23.625Z,2.68
2022-12-08T16:09:22.729Z,2.42
2022-12-08T16:12:06.009Z,2.36
2022-12-08T16:17:20.104Z,2.50
2022-12-08T16:19:46.506Z,2.09
2022-12-08T16:25:14.654Z,2.02
2022-12-08T16:28:01.386Z,2.24
2022-12-08T16:30:30.731Z,2.41
2022-12-08T16:32:56.981Z,2.22
2022-12-08T16:35:23.236Z,2.09
2022-12-08T16:37:49.590Z,2.10
2022-12-08T16:40:15.859Z,2.34
2022-12-08T16:42:42.115Z,2.29
2022-12-08T16:45:08.524Z,2.29
2022-12-08T16:47:34.974Z,2.20
2022-12-08T16:50:01.223Z,2.07
2022-12-08T16:52:27.501Z,2.13
2022-12-08T16:54:53.770Z,2.20
2022-12-08T16:57:20.031Z,2.24
2022-12-08T16:59:46.343Z,2.27
2022-12-08T17:02:16.395Z,2.25
2022-12-08T17:04:42.988Z,2.48
2022-12-08T17:07:09.280Z,2.51
2022-12-08T17:09:35.568Z,2.59
2022-12-08T17:12:04.027Z,2.63
2022-12-08T17:14:30.732Z,2.72
2022-12-08T17:16:57.090Z,2.70
2022-12-08T17:19:23.392Z,2.79
2022-12-08T17:21:49.696Z,2.70
2022-12-08T17:24:20.318Z,2.81
2022-12-08T17:26:48.356Z,2.84
2022-12-08T17:29:14.618Z,2.76
2022-12-08T17:31:40.999Z,2.78
2022-12-08T17:34:07.287Z,2.87
2022-12-08T17:36:33.554Z,2.83
2022-12-08T17:38:59.825Z,2.83
2022-12-08T17:41:26.115Z,2.92
2022-12-08T17:43:52.552Z,2.95
2022-12-08T17:46:18.873Z,2.87
2022-12-08T17:48:45.181Z,2.55
2022-12-08T17:51:11.440Z,2.77
2022-12-08T17:53:37.795Z,2.44
2022-12-08T17:56:04.112Z,2.50
2022-12-08T17:58:30.447Z,2.71
2022-12-08T18:00:56.803Z,2.74
2022-12-08T18:03:23.097Z,2.70
2022-12-08T18:05:49.364Z,2.57
2022-12-08T18:08:15.712Z,2.58
2022-12-08T18:10:41.963Z,2.55
2022-12-08T18:13:08.273Z,2.56
2022-12-08T18:15:39.015Z,2.49
2022-12-08T18:18:05.655Z,2.48
2022-12-08T18:20:31.969Z,2.63
2022-12-08T18:22:58.280Z,2.49
2022-12-08T18:25:24.595Z,2.50
2022-12-08T18:27:50.872Z,2.51
2022-12-08T18:30:17.185Z,2.43
2022-12-08T18:32:43.463Z,2.05
2022-12-08T18:35:09.716Z,1.98
2022-12-08T18:37:37.110Z,2.32
2022-12-08T18:40:03.716Z,2.41
2022-12-08T18:42:30.251Z,2.42
2022-12-08T18:44:56.592Z,2.31
2022-12-08T18:47:22.851Z,1.76
2022-12-08T18:49:49.092Z,1.99
2022-12-08T18:52:18.973Z,2.06
2022-12-08T18:55:05.795Z,2.19
2022-12-08T18:57:33.253Z,2.33
2022-12-08T18:59:59.587Z,2.45
2022-12-08T19:02:25.960Z,2.53
2022-12-08T19:04:52.266Z,2.60
2022-12-08T19:07:18.619Z,2.55
2022-12-08T19:09:44.872Z,2.55
2022-12-08T19:12:11.128Z,2.68
2022-12-08T19:14:37.376Z,2.58
2022-12-08T19:17:03.648Z,2.47
2022-12-08T19:19:29.923Z,2.47
2022-12-08T19:21:56.227Z,2.45
2022-12-08T19:24:22.489Z,2.47
2022-12-08T19:26:48.799Z,2.39
2022-12-08T19:29:15.080Z,2.20
2022-12-08T19:31:41.431Z,1.93
2022-12-08T19:34:07.792Z,2.21
2022-12-08T19:36:34.120Z,2.30
2022-12-08T19:39:00.437Z,2.25
2022-12-08T19:41:26.772Z,2.39
2022-12-08T19:43:53.116Z,2.42
2022-12-08T19:46:19.521Z,2.64
2022-12-08T19:48:45.866Z,2.84
2022-12-08T19:51:12.143Z,2.85
2022-12-08T19:53:40.782Z,2.86
2022-12-08T19:56:10.751Z,3.00
2022-12-08T19:58:37.029Z,2.62
2022-12-08T20:01:03.291Z,2.45
2022-12-08T20:03:29.779Z,2.65
2022-12-08T20:05:56.179Z,2.95
2022-12-08T20:08:22.536Z,3.02
2022-12-08T20:10:48.940Z,3.22
2022-12-08T20:13:15.273Z,3.19
2022-12-08T20:15:41.622Z,3.24
2022-12-08T20:18:08.039Z,3.31
2022-12-08T20:20:34.316Z,2.94
2022-12-08T20:23:00.603Z,3.35
2022-12-08T20:25:26.848Z,3.39
2022-12-08T20:27:53.207Z,3.45
2022-12-08T20:30:19.492Z,3.49
2022-12-08T20:32:45.786Z,3.47
2022-12-08T20:35:12.117Z,3.68
2022-12-08T20:37:38.392Z,3.69
2022-12-08T20:40:04.812Z,3.51
2022-12-08T20:42:31.145Z,3.62
2022-12-08T20:44:57.428Z,3.74
2022-12-08T20:47:23.826Z,3.75
2022-12-08T20:49:50.141Z,3.72
2022-12-08T20:52:16.573Z,3.78
2022-12-08T20:54:43.106Z,3.70
2022-12-08T20:57:09.429Z,3.81
2022-12-08T20:59:35.752Z,3.93
2022-12-08T21:02:02.228Z,4.00
2022-12-08T21:04:28.685Z,3.77
2022-12-08T21:06:55.090Z,3.82
2022-12-08T21:09:21.553Z,4.02
2022-12-08T21:11:48.099Z,4.03
2022-12-08T21:14:14.389Z,4.04
2022-12-08T21:16:40.732Z,4.10
2022-12-08T21:19:07.255Z,4.16
2022-12-08T21:21:33.608Z,4.14
2022-12-08T21:24:00.078Z,4.19
2022-12-08T21:26:26.563Z,4.16
2022-12-08T21:28:52.911Z,4.34
2022-12-08T21:31:19.434Z,4.34
2022-12-08T21:33:45.880Z,4.39
2022-12-08T21:36:12.381Z,4.35
2022-12-08T21:38:38.838Z,4.27
2022-12-08T21:41:05.348Z,4.35
2022-12-08T21:43:31.630Z,4.48
2022-12-08T21:45:57.969Z,3.91
2022-12-08T21:48:24.455Z,4.00
2022-12-08T21:50:50.868Z,4.02
2022-12-08T21:53:17.188Z,3.94
2022-12-08T21:55:43.721Z,4.13
2022-12-08T21:58:10.072Z,4.06
2022-12-08T22:00:36.414Z,4.05
2022-12-08T22:03:03.035Z,3.86
2022-12-08T22:05:29.645Z,4.20
2022-12-08T22:07:56.058Z,4.13
2022-12-08T22:10:22.448Z,3.99
2022-12-08T22:12:48.864Z,4.03
2022-12-08T22:15:15.446Z,4.11
2022-12-08T22:17:41.895Z,4.19
2022-12-08T22:20:08.708Z,4.13
2022-12-08T22:22:35.080Z,4.21
2022-12-08T22:25:01.524Z,4.19
2022-12-08T22:27:27.844Z,4.29
2022-12-08T22:29:54.140Z,4.41
2022-12-08T22:32:20.509Z,4.31
2022-12-08T22:34:47.058Z,4.52
2022-12-08T22:37:13.358Z,4.55
2022-12-08T22:39:39.888Z,4.66
2022-12-08T22:42:06.134Z,4.71
2022-12-08T22:44:32.360Z,4.69
2022-12-08T22:46:58.683Z,4.62
2022-12-08T22:49:24.961Z,4.60
2022-12-08T22:51:51.202Z,4.52
2022-12-08T22:54:17.454Z,4.61
2022-12-08T22:56:43.710Z,3.93
2022-12-08T22:59:10.149Z,4.30
2022-12-08T23:01:36.730Z,4.59
2022-12-08T23:04:03.256Z,4.47
2022-12-08T23:06:29.665Z,4.47
2022-12-08T23:08:56.117Z,4.51
2022-12-08T23:11:22.652Z,4.56
2022-12-08T23:13:49.085Z,4.53
2022-12-08T23:16:15.646Z,4.59
2022-12-08T23:18:42.051Z,4.71
2022-12-08T23:21:08.369Z,4.80
2022-12-08T23:23:34.771Z,4.85
2022-12-08T23:26:01.051Z,4.73
2022-12-08T23:28:27.567Z,4.54
2022-12-08T23:30:53.988Z,4.71
2022-12-08T23:33:20.451Z,4.71
2022-12-08T23:35:47.093Z,4.92
2022-12-08T23:38:13.421Z,4.97
2022-12-08T23:40:39.738Z,4.99
2022-12-08T23:43:06.015Z,5.04
2022-12-08T23:45:32.415Z,5.06
2022-12-08T23:47:58.723Z,4.94
2022-12-08T23:50:25.054Z,4.97
2022-12-08T23:52:51.372Z,4.97
2022-12-08T23:55:17.661Z,4.93
2022-12-08T23:57:44.086Z,4.98
